createdAt,value
2022-11-04T00:03:43.743Z,1.53
2022-11-04T00:08:36.261Z,1.80
2022-11-04T00:13:30.971Z,1.40
2022-11-04T00:18:22.648Z,3.63
2022-11-04T00:23:32.981Z,2.03
2022-11-04T00:28:42.744Z,3.40
2022-11-04T00:33:34.266Z,2.07
2022-11-04T00:38:26.016Z,3.53
2022-11-04T00:43:17.706Z,1.40
2022-11-04T00:48:10.532Z,1.80
2022-11-04T00:53:03.526Z,1.47
2022-11-04T00:57:55.954Z,1.37
2022-11-04T01:02:47.773Z,1.90
2022-11-04T01:07:43.498Z,1.60
2022-11-04T01:12:35.433Z,1.80
2022-11-04T01:17:27.137Z,1.63
2022-11-04T01:22:18.659Z,2.90
2022-11-04T01:27:10.224Z,1.67
2022-11-04T01:32:01.841Z,1.47
2022-11-04T01:36:53.448Z,1.07
2022-11-04T01:41:45.017Z,1.50
2022-11-04T01:46:50.674Z,4.40
2022-11-04T01:51:43.584Z,1.13
2022-11-04T01:56:35.259Z,1.57
2022-11-04T02:01:27.212Z,1.57
2022-11-04T02:06:19.916Z,1.80
2022-11-04T02:11:31.552Z,3.13
2022-11-04T02:16:50.063Z,2.33
2022-11-04T02:22:13.176Z,2.33
2022-11-04T02:27:30.183Z,3.67
2022-11-04T02:32:49.413Z,1.37
2022-11-04T02:37:59.641Z,4.07
2022-11-04T02:43:12.171Z,3.03
2022-11-04T02:48:30.587Z,1.83
2022-11-04T02:53:39.589Z,5.30
2022-11-04T02:58:36.761Z,2.57
2022-11-04T03:03:38.206Z,2.87
2022-11-04T03:08:45.734Z,3.03
2022-11-04T03:14:00.639Z,3.30
2022-11-04T03:19:05.370Z,2.07
2022-11-04T03:23:57.267Z,2.27
2022-11-04T03:29:01.378Z,6.07
2022-11-04T03:33:55.018Z,5.27
2022-11-04T03:38:47.079Z,3.20
2022-11-04T03:43:40.977Z,2.27
2022-11-04T03:48:32.704Z,2.77
2022-11-04T03:53:27.758Z,2.93
2022-11-04T03:58:34.578Z,2.80
2022-11-04T04:04:02.431Z,5.10
2022-11-04T04:08:58.459Z,3.23
2022-11-04T04:14:11.953Z,2.07
2022-11-04T04:19:10.341Z,4.53
2022-11-04T04:24:24.626Z,1.97
2022-11-04T04:29:18.555Z,5.97
2022-11-04T04:34:10.722Z,2.63
2022-11-04T04:39:27.105Z,3.27
2022-11-04T04:44:42.883Z,5.57
2022-11-04T04:49:37.440Z,2.80
2022-11-04T04:54:28.986Z,4.73
2022-11-04T04:59:20.558Z,4.43
2022-11-04T05:04:12.154Z,3.87
2022-11-04T05:09:04.138Z,4.57
2022-11-04T05:13:55.864Z,5.30
2022-11-04T05:18:47.499Z,3.50
2022-11-04T05:23:39.858Z,3.53
2022-11-04T05:28:31.632Z,5.40
2022-11-04T05:33:23.234Z,4.30
2022-11-04T05:38:14.830Z,3.33
2022-11-04T05:43:06.824Z,6.27
2022-11-04T05:48:04.274Z,6.17
2022-11-04T05:53:00.429Z,4.37
2022-11-04T05:57:52.321Z,5.23
2022-11-04T06:02:43.963Z,4.23
2022-11-04T06:07:35.578Z,4.83
2022-11-04T06:12:27.196Z,3.37
2022-11-04T06:17:22.427Z,7.13
2022-11-04T06:22:16.030Z,3.13
2022-11-04T06:27:08.001Z,5.43
2022-11-04T06:31:59.553Z,4.87
2022-11-04T06:36:51.666Z,4.07
2022-11-04T06:41:43.760Z,2.33
2022-11-04T06:46:43.486Z,2.80
2022-11-04T06:51:35.081Z,4.87
2022-11-04T06:56:26.701Z,7.50
2022-11-04T07:01:22.115Z,3.03
2022-11-04T07:06:14.093Z,9.07
2022-11-04T07:11:05.770Z,4.73
2022-11-04T07:15:57.952Z,5.87
2022-11-04T07:20:49.615Z,7.47
2022-11-04T07:25:41.951Z,6.70
2022-11-04T07:30:33.490Z,3.87
2022-11-04T07:35:25.009Z,4.83
2022-11-04T07:40:16.991Z,6.73
2022-11-04T07:45:08.994Z,5.77
2022-11-04T07:50:02.923Z,4.63
2022-11-04T07:54:56.956Z,8.73
2022-11-04T07:59:48.550Z,5.67
2022-11-04T08:04:40.414Z,4.77
2022-11-04T08:09:31.957Z,3.80
2022-11-04T08:14:23.469Z,3.43
2022-11-04T08:19:14.990Z,3.87
2022-11-04T08:24:06.802Z,4.23
2022-11-04T08:28:59.261Z,7.43
2022-11-04T08:33:51.709Z,5.00
2022-11-04T08:38:43.665Z,5.67
2022-11-04T08:43:35.796Z,5.40
2022-11-04T08:48:28.055Z,3.33
2022-11-04T08:53:20.243Z,4.20
2022-11-04T08:58:12.551Z,5.63
2022-11-04T09:03:04.711Z,3.17
2022-11-04T09:07:56.814Z,4.37
2022-11-04T09:12:48.464Z,6.17
2022-11-04T09:17:40.540Z,4.77
2022-11-04T09:22:32.190Z,3.93
2022-11-04T09:27:23.913Z,5.47
2022-11-04T09:32:15.676Z,5.70
2022-11-04T09:37:07.445Z,5.00
2022-11-04T09:42:24.923Z,6.20
2022-11-04T09:47:21.620Z,4.07
2022-11-04T09:52:26.527Z,5.37
2022-11-04T09:57:19.306Z,6.33
2022-11-04T10:02:50.141Z,4.70
2022-11-04T10:08:00.978Z,9.17
2022-11-04T10:13:11.524Z,5.23
2022-11-04T10:18:18.363Z,7.73
2022-11-04T10:23:32.309Z,5.93
2022-11-04T10:28:41.004Z,7.33
2022-11-04T10:33:41.413Z,4.87
2022-11-04T10:38:48.186Z,5.63
2022-11-04T10:43:41.060Z,6.10
2022-11-04T10:48:39.146Z,5.33
2022-11-04T10:53:33.115Z,6.20
2022-11-04T10:58:32.882Z,8.07
2022-11-04T11:03:35.450Z,5.37
2022-11-04T11:08:33.046Z,7.97
2022-11-04T11:13:34.875Z,5.17
2022-11-04T11:18:28.490Z,8.17
2022-11-04T11:23:33.964Z,7.73
2022-11-04T11:28:26.949Z,6.47
2022-11-04T11:33:27.916Z,4.27
2022-11-04T11:38:25.577Z,8.20
2022-11-04T11:43:27.047Z,4.13
2022-11-04T11:48:29.381Z,4.13
2022-11-04T11:53:24.253Z,3.23
2022-11-04T12:09:18.385Z,5.27
2022-11-04T12:14:36.679Z,6.13
2022-11-04T12:19:41.146Z,4.63
2022-11-04T12:24:44.316Z,3.27
2022-11-04T12:29:54.472Z,4.38
2022-11-04T12:34:50.341Z,4.30
2022-11-04T12:40:09.565Z,6.23
2022-11-04T12:45:10.067Z,3.60
2022-11-04T12:50:23.297Z,4.30
2022-11-04T12:55:45.596Z,5.53
2022-11-04T13:00:38.760Z,3.53
2022-11-04T13:05:52.483Z,3.73
2022-11-04T13:10:59.511Z,2.57
2022-11-04T13:15:58.097Z,4.10
2022-11-04T13:21:04.653Z,5.07
2022-11-04T13:25:58.425Z,2.27
2022-11-04T13:30:59.077Z,3.30
2022-11-04T13:35:56.551Z,4.07
2022-11-04T13:41:22.070Z,4.90
2022-11-04T13:46:23.763Z,3.00
2022-11-04T13:51:15.475Z,3.43
2022-11-04T13:56:31.637Z,3.07
2022-11-04T14:01:19.491Z,3.50
2022-11-04T14:06:11.166Z,3.50
2022-11-04T14:11:07.971Z,3.80
2022-11-04T14:16:29.041Z,4.95
2022-11-04T14:21:23.325Z,4.03
2022-11-04T14:26:20.689Z,5.47
2022-11-04T14:31:17.722Z,5.57
2022-11-04T14:36:21.563Z,3.83
2022-11-04T14:41:39.572Z,3.47
2022-11-04T14:46:40.362Z,5.33
2022-11-04T14:51:40.139Z,4.83
2022-11-04T14:56:31.771Z,3.97
2022-11-04T15:01:26.536Z,6.77
2022-11-04T15:06:40.426Z,4.13
2022-11-04T15:11:58.707Z,4.37
2022-11-04T15:16:55.181Z,5.60
2022-11-04T15:21:49.515Z,6.63
2022-11-04T15:26:41.150Z,5.10
2022-11-04T15:31:34.965Z,6.47
2022-11-04T15:36:33.439Z,5.83
2022-11-04T15:41:45.759Z,6.10
2022-11-04T15:46:37.326Z,7.20
2022-11-04T15:51:34.602Z,5.13
2022-11-04T15:56:32.384Z,6.47
2022-11-04T16:01:24.755Z,5.20
2022-11-04T16:06:16.993Z,6.37
2022-11-04T16:11:18.046Z,5.53
2022-11-04T16:16:23.226Z,5.03
2022-11-04T16:21:22.106Z,5.80
2022-11-04T16:26:14.139Z,6.93
2022-11-04T16:31:08.507Z,5.80
2022-11-04T16:36:00.196Z,8.27
2022-11-04T16:40:51.853Z,8.97
2022-11-04T16:45:52.418Z,7.60
2022-11-04T16:50:46.614Z,5.83
2022-11-04T16:55:42.950Z,5.20
2022-11-04T17:00:34.621Z,7.50
2022-11-04T17:05:26.150Z,8.33
2022-11-04T17:10:22.067Z,8.43
2022-11-04T17:15:15.132Z,7.27
2022-11-04T17:20:07.655Z,8.67
2022-11-04T17:24:59.180Z,9.87
2022-11-04T17:29:50.780Z,7.67
2022-11-04T17:34:43.193Z,8.77
2022-11-04T17:39:34.865Z,6.27
2022-11-04T17:44:26.456Z,13.53
2022-11-04T17:49:21.163Z,9.23
2022-11-04T17:54:13.373Z,7.10
2022-11-04T17:59:05.283Z,11.20
2022-11-04T18:03:57.982Z,5.47
2022-11-04T18:08:52.842Z,7.97
2022-11-04T18:13:44.398Z,11.17
2022-11-04T18:18:35.910Z,10.40
2022-11-04T18:23:29.295Z,9.30
2022-11-04T18:28:20.893Z,9.17
2022-11-04T18:33:12.824Z,8.97
2022-11-04T18:38:04.492Z,9.23
2022-11-04T18:42:56.417Z,11.87
2022-11-04T18:47:48.733Z,13.00
2022-11-04T18:52:40.998Z,9.70
2022-11-04T18:57:32.601Z,9.33
2022-11-04T19:02:24.411Z,9.87
2022-11-04T19:07:16.120Z,11.80
2022-11-04T19:12:26.691Z,9.20
2022-11-04T19:17:18.618Z,14.07
2022-11-04T19:22:10.951Z,10.97
2022-11-04T19:27:02.593Z,11.03
2022-11-04T19:31:54.237Z,11.87
2022-11-04T19:36:45.860Z,12.97
2022-11-04T19:41:56.477Z,11.07
2022-11-04T19:46:49.185Z,10.50
2022-11-04T19:51:41.247Z,11.27
2022-11-04T19:56:33.776Z,15.20
2022-11-04T20:01:25.592Z,10.57
2022-11-04T20:06:18.393Z,12.50
2022-11-04T20:11:11.024Z,15.43
2022-11-04T20:16:14.250Z,15.90
2022-11-04T20:21:06.455Z,15.37
2022-11-04T20:26:06.524Z,17.43
2022-11-04T20:30:58.153Z,17.20
2022-11-04T20:35:49.917Z,14.43
2022-11-04T20:40:41.535Z,16.03
2022-11-04T20:45:33.148Z,15.70
2022-11-04T20:50:24.761Z,17.33
2022-11-04T20:55:16.398Z,18.03
2022-11-04T21:00:08.930Z,16.63
2022-11-04T21:05:00.560Z,16.83
2022-11-04T21:09:52.224Z,20.30
2022-11-04T21:14:43.780Z,17.13
2022-11-04T21:19:35.359Z,18.30
2022-11-04T21:24:26.996Z,20.40
2022-11-04T21:29:20.359Z,17.77
2022-11-04T21:34:12.266Z,19.83
2022-11-04T21:39:04.435Z,19.77
2022-11-04T21:44:01.435Z,19.20
2022-11-04T21:48:53.143Z,20.50
2022-11-04T21:53:45.248Z,16.90
2022-11-04T21:58:37.898Z,16.80
2022-11-04T22:03:29.561Z,15.47
2022-11-04T22:08:21.430Z,16.53
2022-11-04T22:13:13.243Z,13.43
2022-11-04T22:18:06.107Z,17.27
2022-11-04T22:22:57.978Z,16.17
2022-11-04T22:27:49.679Z,16.27
2022-11-04T22:32:41.444Z,15.67
2022-11-04T22:37:33.372Z,15.33
